createdAt,value
2018-04-08T00:00:55.264Z,12.10
2018-04-08T00:01:55.259Z,11.60
2018-04-08T00:02:55.231Z,11.50
2018-04-08T00:03:55.228Z,11.50
2018-04-08T00:04:55.202Z,11.00
2018-04-08T00:05:55.193Z,11.10
2018-04-08T00:06:55.174Z,11.30
2018-04-08T00:07:55.160Z,11.30
2018-04-08T00:08:55.158Z,11.30
2018-04-08T00:09:55.144Z,11.00
2018-04-08T00:10:55.118Z,10.50
2018-04-08T00:11:55.095Z,10.90
2018-04-08T00:12:55.081Z,10.70
2018-04-08T00:13:55.063Z,10.80
2018-04-08T00:14:55.066Z,10.80
2018-04-08T00:15:55.037Z,11.00
2018-04-08T00:16:55.021Z,10.60
2018-04-08T00:17:55.111Z,11.30
2018-04-08T00:18:54.997Z,11.80
2018-04-08T00:19:54.979Z,11.50
2018-04-08T00:20:54.967Z,11.80
2018-04-08T00:21:54.942Z,11.60
2018-04-08T00:22:54.926Z,11.60
2018-04-08T00:23:54.948Z,11.40
2018-04-08T00:24:54.904Z,11.30
2018-04-08T00:25:54.891Z,11.50
2018-04-08T00:26:54.866Z,11.30
2018-04-08T00:27:54.849Z,11.50
2018-04-08T00:28:54.835Z,11.80
2018-04-08T00:29:54.826Z,13.60
2018-04-08T00:30:54.804Z,13.90
2018-04-08T00:31:54.786Z,13.60
2018-04-08T00:32:54.770Z,12.80
2018-04-08T00:33:54.756Z,13.80
2018-04-08T00:34:54.741Z,13.70
2018-04-08T00:35:54.727Z,14.10
2018-04-08T00:36:54.711Z,13.20
2018-04-08T00:37:54.695Z,13.80
2018-04-08T00:38:54.677Z,13.90
2018-04-08T00:39:54.662Z,13.10
2018-04-08T00:40:54.650Z,13.70
2018-04-08T00:41:54.673Z,12.60
2018-04-08T00:42:54.616Z,13.00
2018-04-08T00:43:54.603Z,12.60
2018-04-08T00:44:54.743Z,12.40
2018-04-08T00:45:54.572Z,12.40
2018-04-08T00:46:54.554Z,13.40
2018-04-08T00:47:54.558Z,12.70
2018-04-08T00:48:54.524Z,12.30
2018-04-08T00:49:54.505Z,12.50
2018-04-08T00:50:54.493Z,13.00
2018-04-08T00:51:54.475Z,13.20
2018-04-08T00:52:54.465Z,13.60
2018-04-08T00:53:54.453Z,13.30
2018-04-08T00:54:54.428Z,13.20
2018-04-08T00:55:54.412Z,13.00
2018-04-08T00:56:54.414Z,13.10
2018-04-08T00:57:54.383Z,13.70
2018-04-08T00:58:54.369Z,13.10
2018-04-08T00:59:54.352Z,14.20
2018-04-08T01:00:54.415Z,14.80
2018-04-08T01:01:54.322Z,14.70
2018-04-08T01:02:54.306Z,15.60
2018-04-08T01:03:54.444Z,14.40
2018-04-08T01:04:54.271Z,13.80
2018-04-08T01:05:54.256Z,14.90
2018-04-08T01:06:54.244Z,13.40
2018-04-08T01:07:54.225Z,13.60
2018-04-08T01:08:54.213Z,12.60
2018-04-08T01:09:54.193Z,12.60
2018-04-08T01:10:54.184Z,13.10
2018-04-08T01:11:54.160Z,13.00
2018-04-08T01:12:54.143Z,12.60
2018-04-08T01:13:54.132Z,12.80
2018-04-08T01:14:54.113Z,12.90
2018-04-08T01:15:54.100Z,12.90
2018-04-08T01:16:54.082Z,13.10
2018-04-08T01:17:54.066Z,13.50
2018-04-08T01:18:54.056Z,13.40
2018-04-08T01:19:54.046Z,13.50
2018-04-08T01:20:54.019Z,13.00
2018-04-08T01:21:54.003Z,12.70
2018-04-08T01:22:53.991Z,12.70
2018-04-08T01:23:53.972Z,13.30
2018-04-08T01:24:53.954Z,12.60
2018-04-08T01:25:53.940Z,13.40
2018-04-08T01:26:53.927Z,15.50
2018-04-08T01:27:54.017Z,16.80
2018-04-08T01:28:53.901Z,17.60
2018-04-08T01:29:53.875Z,18.00
2018-04-08T01:30:53.906Z,20.10
2018-04-08T01:31:53.845Z,21.20
2018-04-08T01:32:53.828Z,22.80
2018-04-08T01:33:53.814Z,23.40
2018-04-08T01:34:53.798Z,24.00
2018-04-08T01:35:53.780Z,24.10
2018-04-08T01:36:53.767Z,25.30
2018-04-08T01:37:53.749Z,24.40
2018-04-08T01:38:53.734Z,22.00
2018-04-08T01:39:53.722Z,21.00
2018-04-08T01:40:53.700Z,22.60
2018-04-08T01:41:53.685Z,21.80
2018-04-08T01:42:53.670Z,21.00
2018-04-08T01:43:53.652Z,21.20
2018-04-08T01:44:53.639Z,22.50
2018-04-08T01:45:53.623Z,16.10
2018-04-08T01:46:53.738Z,16.70
2018-04-08T01:47:53.589Z,15.30
2018-04-08T01:48:53.572Z,16.80
2018-04-08T01:49:53.572Z,16.10
2018-04-08T01:50:53.541Z,16.50
2018-04-08T01:51:53.524Z,15.30
2018-04-08T01:52:53.506Z,16.90
2018-04-08T01:53:53.491Z,16.70
2018-04-08T01:54:53.476Z,15.90
2018-04-08T01:55:53.459Z,15.00
2018-04-08T01:56:53.443Z,14.30
2018-04-08T01:57:53.428Z,15.60
2018-04-08T01:58:53.410Z,13.50
2018-04-08T01:59:53.414Z,14.80
2018-04-08T02:00:53.377Z,14.40
2018-04-08T02:01:53.366Z,14.50
2018-04-08T02:02:53.422Z,13.70
2018-04-08T02:03:53.330Z,14.30
2018-04-08T02:04:53.316Z,12.20
2018-04-08T02:05:53.298Z,11.90
2018-04-08T02:06:53.303Z,13.90
2018-04-08T02:07:53.268Z,13.00
2018-04-08T02:08:53.249Z,12.50
2018-04-08T02:09:53.234Z,12.70
2018-04-08T02:10:53.219Z,13.10
2018-04-08T02:11:53.204Z,12.70
2018-04-08T02:12:53.186Z,13.20
2018-04-08T02:13:53.180Z,11.80
2018-04-08T02:14:53.153Z,12.00
2018-04-08T02:15:53.135Z,12.20
2018-04-08T02:16:53.127Z,12.10
2018-04-08T02:17:53.106Z,11.80
2018-04-08T02:18:53.238Z,11.70
2018-04-08T02:19:53.075Z,11.00
2018-04-08T02:20:53.054Z,10.80
2018-04-08T02:21:53.044Z,11.50
2018-04-08T02:22:53.025Z,11.90
2018-04-08T02:23:53.007Z,11.50
2018-04-08T02:24:52.994Z,11.60
2018-04-08T02:25:52.972Z,11.70
2018-04-08T02:26:52.975Z,12.80
2018-04-08T02:27:52.943Z,12.00
2018-04-08T02:28:52.924Z,12.00
2018-04-08T02:29:52.913Z,12.60
2018-04-08T02:30:52.893Z,12.50
2018-04-08T02:31:52.876Z,12.70
2018-04-08T02:32:52.857Z,13.20
2018-04-08T02:33:52.855Z,12.50
2018-04-08T02:34:52.824Z,12.30
2018-04-08T02:35:52.809Z,12.40
2018-04-08T02:36:52.802Z,12.00
2018-04-08T02:37:52.784Z,12.30
2018-04-08T02:38:52.771Z,12.50
2018-04-08T02:39:52.752Z,12.20
2018-04-08T02:40:52.734Z,12.80
2018-04-08T02:41:52.711Z,12.70
2018-04-08T02:42:52.765Z,12.60
2018-04-08T02:43:52.677Z,13.20
2018-04-08T02:44:52.660Z,12.80
2018-04-08T02:45:52.796Z,12.50
2018-04-08T02:46:52.631Z,13.00
2018-04-08T02:47:52.614Z,11.70
2018-04-08T02:48:52.596Z,12.40
2018-04-08T02:49:52.580Z,12.50
2018-04-08T02:50:52.562Z,12.60
2018-04-08T02:51:52.545Z,12.30
2018-04-08T02:52:52.542Z,12.20
2018-04-08T02:53:52.512Z,12.00
2018-04-08T02:54:52.507Z,11.80
2018-04-08T02:55:52.479Z,11.30
2018-04-08T02:56:52.461Z,11.80
2018-04-08T02:57:52.444Z,12.30
2018-04-08T02:58:52.433Z,13.00
2018-04-08T02:59:52.413Z,13.50
2018-04-08T03:00:52.400Z,13.60
2018-04-08T03:01:52.378Z,14.90
2018-04-08T03:02:52.361Z,14.70
2018-04-08T03:03:52.349Z,14.00
2018-04-08T03:04:52.331Z,14.60
2018-04-08T03:05:52.317Z,12.60
2018-04-08T03:06:52.299Z,13.30
2018-04-08T03:07:52.280Z,13.40
2018-04-08T03:08:52.264Z,13.00
2018-04-08T03:09:52.248Z,12.60
2018-04-08T03:10:52.233Z,13.00
2018-04-08T03:11:52.212Z,13.10
2018-04-08T03:12:52.212Z,12.90
2018-04-08T03:13:52.180Z,13.20
2018-04-08T03:14:52.161Z,12.80
2018-04-08T03:15:52.148Z,12.40
2018-04-08T03:16:52.128Z,11.10
2018-04-08T03:17:52.218Z,11.30
2018-04-08T03:18:52.095Z,10.90
2018-04-08T03:19:52.078Z,11.10
2018-04-08T03:20:52.068Z,12.60
2018-04-08T03:21:52.055Z,13.80
2018-04-08T03:22:52.029Z,12.50
2018-04-08T03:23:52.022Z,12.90
2018-04-08T03:24:51.997Z,12.70
2018-04-08T03:25:52.126Z,13.60
2018-04-08T03:26:51.960Z,13.20
2018-04-08T03:27:51.947Z,12.20
2018-04-08T03:28:51.940Z,11.70
2018-04-08T03:29:51.910Z,12.30
2018-04-08T03:30:51.896Z,11.50
2018-04-08T03:31:51.882Z,11.60
2018-04-08T03:32:51.858Z,11.90
2018-04-08T03:33:51.847Z,12.30
2018-04-08T03:34:51.825Z,11.40
2018-04-08T03:35:51.809Z,11.50
2018-04-08T03:36:51.790Z,11.20
2018-04-08T03:37:51.774Z,11.50
2018-04-08T03:38:51.759Z,11.50
2018-04-08T03:39:51.745Z,10.90
2018-04-08T03:40:51.724Z,11.80
2018-04-08T03:41:51.707Z,11.50
2018-04-08T03:42:51.695Z,11.60
2018-04-08T03:43:51.673Z,11.80
2018-04-08T03:44:51.738Z,11.70
2018-04-08T03:45:51.638Z,11.90
2018-04-08T03:46:51.622Z,12.10
2018-04-08T03:47:51.658Z,12.90
2018-04-08T03:48:51.590Z,11.80
2018-04-08T03:49:51.573Z,12.70
2018-04-08T03:50:51.555Z,13.40
2018-04-08T03:51:51.561Z,13.70
2018-04-08T03:52:51.522Z,12.90
2018-04-08T03:53:51.520Z,12.70
2018-04-08T03:54:51.487Z,12.30
2018-04-08T03:55:51.474Z,11.50
2018-04-08T03:56:51.455Z,11.90
2018-04-08T03:57:51.468Z,12.00
2018-04-08T03:58:51.422Z,11.20
2018-04-08T03:59:51.411Z,11.50
2018-04-08T04:00:51.550Z,11.80
2018-04-08T04:01:51.371Z,12.70
2018-04-08T04:02:51.354Z,11.70
2018-04-08T04:03:51.442Z,11.80
2018-04-08T04:04:51.324Z,11.30
2018-04-08T04:05:51.302Z,11.40
2018-04-08T04:06:51.291Z,11.50
2018-04-08T04:07:51.271Z,11.50
2018-04-08T04:08:51.251Z,11.30
2018-04-08T04:09:51.236Z,11.50
2018-04-08T04:10:51.221Z,11.40
2018-04-08T04:11:51.237Z,10.60
2018-04-08T04:12:51.183Z,11.30
2018-04-08T04:13:51.171Z,11.20
2018-04-08T04:14:51.150Z,11.50
2018-04-08T04:15:51.134Z,10.80
2018-04-08T04:16:51.120Z,11.40
2018-04-08T04:17:51.100Z,12.80
2018-04-08T04:18:51.083Z,12.70
2018-04-08T04:19:51.064Z,13.30
2018-04-08T04:20:51.050Z,12.70
2018-04-08T04:21:51.029Z,11.70
2018-04-08T04:22:51.015Z,12.30
2018-04-08T04:23:50.998Z,12.00
2018-04-08T04:24:50.979Z,11.20
2018-04-08T04:25:50.960Z,11.30
2018-04-08T04:26:50.948Z,11.50
2018-04-08T04:27:51.050Z,11.50
2018-04-08T04:28:50.913Z,11.40
2018-04-08T04:29:50.893Z,11.20
2018-04-08T04:30:50.938Z,10.90
2018-04-08T04:31:50.863Z,11.20
2018-04-08T04:32:50.842Z,11.50
2018-04-08T04:33:50.827Z,12.00
2018-04-08T04:34:50.808Z,11.80
2018-04-08T04:35:50.794Z,12.30
2018-04-08T04:36:50.772Z,11.20
2018-04-08T04:37:50.758Z,12.20
2018-04-08T04:38:50.743Z,12.90
2018-04-08T04:39:50.729Z,12.00
2018-04-08T04:40:50.709Z,13.00
2018-04-08T04:41:50.692Z,12.60
2018-04-08T04:42:50.677Z,11.70
2018-04-08T04:43:50.657Z,11.90
2018-04-08T04:44:50.639Z,11.80
2018-04-08T04:45:50.623Z,11.60
2018-04-08T04:46:50.726Z,11.40
2018-04-08T04:47:50.592Z,11.30
2018-04-08T04:48:50.568Z,11.10
2018-04-08T04:49:50.554Z,11.80
2018-04-08T04:50:50.545Z,11.50
2018-04-08T04:51:50.521Z,12.90
2018-04-08T04:52:50.500Z,12.70
2018-04-08T04:53:50.485Z,12.10
2018-04-08T04:54:50.465Z,11.50
2018-04-08T04:55:50.470Z,11.60
2018-04-08T04:56:50.440Z,11.70
2018-04-08T04:57:50.414Z,11.50
2018-04-08T04:58:50.401Z,12.10
2018-04-08T04:59:50.385Z,12.30
2018-04-08T05:00:50.365Z,11.50
2018-04-08T05:01:50.348Z,12.00
2018-04-08T05:02:50.331Z,11.30
2018-04-08T05:03:50.319Z,11.60
2018-04-08T05:04:50.299Z,11.80
2018-04-08T05:05:50.345Z,11.30
2018-04-08T05:06:50.265Z,12.10
2018-04-08T05:07:50.253Z,11.80
2018-04-08T05:08:50.229Z,12.00
2018-04-08T05:09:50.216Z,12.10
2018-04-08T05:10:50.193Z,11.90
2018-04-08T05:11:50.177Z,11.80
2018-04-08T05:12:50.171Z,11.50
2018-04-08T05:13:50.233Z,12.00
2018-04-08T05:14:50.125Z,12.20
2018-04-08T05:15:50.114Z,11.90
2018-04-08T05:16:50.152Z,13.00
2018-04-08T05:17:50.075Z,13.10
2018-04-08T05:18:50.057Z,11.90
2018-04-08T05:19:50.042Z,11.80
2018-04-08T05:20:50.025Z,12.60
2018-04-08T05:21:50.006Z,11.60
2018-04-08T05:22:49.996Z,12.40
2018-04-08T05:23:49.975Z,12.40
2018-04-08T05:24:49.956Z,12.60
2018-04-08T05:25:49.944Z,12.70
2018-04-08T05:26:49.924Z,12.80
2018-04-08T05:27:49.911Z,11.90
2018-04-08T05:28:49.900Z,11.60
2018-04-08T05:29:49.873Z,11.50
2018-04-08T05:30:49.859Z,11.50
2018-04-08T05:31:49.841Z,11.00
2018-04-08T05:32:49.941Z,10.70
2018-04-08T05:33:49.811Z,11.00
2018-04-08T05:34:49.790Z,10.80
2018-04-08T05:35:49.841Z,12.00
2018-04-08T05:36:49.760Z,10.40
2018-04-08T05:37:49.742Z,10.00
2018-04-08T05:38:49.726Z,10.20
2018-04-08T05:39:49.710Z,11.00
2018-04-08T05:40:49.692Z,10.60
2018-04-08T05:41:49.674Z,10.10
2018-04-08T05:42:49.658Z,9.90
2018-04-08T05:43:49.644Z,10.50
2018-04-08T05:44:49.636Z,9.70
2018-04-08T05:45:49.616Z,9.60
2018-04-08T05:46:49.594Z,9.80
2018-04-08T05:47:49.579Z,10.20
2018-04-08T05:48:49.569Z,10.10
2018-04-08T05:49:49.542Z,10.70
2018-04-08T05:50:49.535Z,9.70
2018-04-08T05:51:49.597Z,10.00
2018-04-08T05:52:49.497Z,10.60
2018-04-08T05:53:49.481Z,10.40
2018-04-08T05:54:49.518Z,10.30
2018-04-08T05:55:49.454Z,9.00
2018-04-08T05:56:49.436Z,9.50
2018-04-08T05:57:49.418Z,9.80
2018-04-08T05:58:49.414Z,10.10
2018-04-08T05:59:49.491Z,10.90
2018-04-08T06:00:49.368Z,9.90
2018-04-08T06:01:49.356Z,10.10
2018-04-08T06:02:49.337Z,10.50
2018-04-08T06:03:49.328Z,9.80
2018-04-08T06:04:49.302Z,9.90
2018-04-08T06:05:49.287Z,10.20
2018-04-08T06:06:49.280Z,10.20
2018-04-08T06:07:49.257Z,9.60
2018-04-08T06:08:49.240Z,9.60
2018-04-08T06:09:49.227Z,10.00
2018-04-08T06:10:49.217Z,9.50
2018-04-08T06:11:49.197Z,9.70
2018-04-08T06:12:49.176Z,9.40
2018-04-08T06:13:49.165Z,9.30
2018-04-08T06:14:49.149Z,10.00
2018-04-08T06:15:49.142Z,9.20
2018-04-08T06:16:49.124Z,9.60
2018-04-08T06:17:49.101Z,9.70
2018-04-08T06:18:49.088Z,9.20
2018-04-08T06:19:49.070Z,9.50
2018-04-08T06:20:49.055Z,9.40
2018-04-08T06:21:49.039Z,9.30
2018-04-08T06:22:49.025Z,9.50
2018-04-08T06:23:49.010Z,10.00
2018-04-08T06:24:49.044Z,10.40
2018-04-08T06:25:48.978Z,9.20
2018-04-08T06:26:48.965Z,9.50
2018-04-08T06:27:48.946Z,9.60
2018-04-08T06:28:48.930Z,9.80
2018-04-08T06:29:48.919Z,10.20
2018-04-08T06:30:48.899Z,10.70
2018-04-08T06:31:48.888Z,9.40
2018-04-08T06:32:48.867Z,9.60
2018-04-08T06:33:48.854Z,9.20
2018-04-08T06:34:48.840Z,9.70
2018-04-08T06:35:48.823Z,9.90
2018-04-08T06:36:48.806Z,10.10
2018-04-08T06:37:48.794Z,9.80
2018-04-08T06:38:48.778Z,10.00
2018-04-08T06:39:48.766Z,9.40
2018-04-08T06:40:48.745Z,9.30
2018-04-08T06:41:48.733Z,9.70
2018-04-08T06:42:48.731Z,9.80
2018-04-08T06:43:48.702Z,10.20
2018-04-08T06:44:48.685Z,9.90
2018-04-08T06:45:48.679Z,9.80
2018-04-08T06:46:48.659Z,9.30
2018-04-08T06:47:48.640Z,9.80
2018-04-08T06:48:48.624Z,9.50
2018-04-08T06:49:48.611Z,9.20
2018-04-08T06:50:48.722Z,9.70
2018-04-08T06:51:48.581Z,9.90
2018-04-08T06:52:48.563Z,9.70
2018-04-08T06:53:48.556Z,10.30
2018-04-08T06:54:48.538Z,9.80
2018-04-08T06:55:48.527Z,9.40
2018-04-08T06:56:48.503Z,9.10
2018-04-08T06:57:48.490Z,9.70
2018-04-08T06:58:48.489Z,9.60
2018-04-08T06:59:48.467Z,9.70
2018-04-08T07:00:48.443Z,9.00
2018-04-08T07:01:48.431Z,9.90
2018-04-08T07:02:48.412Z,9.50
2018-04-08T07:03:48.399Z,9.80
2018-04-08T07:04:48.384Z,9.40
2018-04-08T07:05:48.370Z,9.70
2018-04-08T07:06:48.353Z,9.50
2018-04-08T07:07:48.340Z,9.60
2018-04-08T07:08:48.323Z,10.20
2018-04-08T07:09:48.309Z,9.60
2018-04-08T07:10:48.296Z,9.10
2018-04-08T07:11:48.290Z,9.10
2018-04-08T07:12:48.271Z,8.80
2018-04-08T07:13:48.252Z,10.00
2018-04-08T07:14:48.326Z,10.00
2018-04-08T07:15:48.235Z,9.70
2018-04-08T07:16:48.204Z,9.90
2018-04-08T07:17:48.281Z,9.60
2018-04-08T07:18:48.179Z,9.30
2018-04-08T07:19:48.160Z,9.50
2018-04-08T07:20:48.189Z,9.70
2018-04-08T07:21:48.141Z,10.00
2018-04-08T07:22:48.119Z,9.80
2018-04-08T07:23:48.106Z,9.70
2018-04-08T07:24:48.106Z,10.10
2018-04-08T07:25:48.077Z,10.30
2018-04-08T07:26:48.070Z,9.80
2018-04-08T07:27:48.048Z,10.50
2018-04-08T07:28:48.029Z,10.20
2018-04-08T07:29:48.022Z,10.20
2018-04-08T07:30:48.011Z,9.80
2018-04-08T07:31:47.987Z,10.80
2018-04-08T07:32:47.976Z,10.20
2018-04-08T07:33:47.973Z,9.80
2018-04-08T07:34:47.947Z,9.60
2018-04-08T07:35:47.939Z,9.80
2018-04-08T07:36:47.983Z,10.20
2018-04-08T07:37:47.903Z,10.80
2018-04-08T07:38:47.894Z,10.20
2018-04-08T07:39:47.878Z,10.70
2018-04-08T07:40:47.865Z,10.50
2018-04-08T07:41:47.852Z,10.30
2018-04-08T07:42:47.836Z,11.10
2018-04-08T07:43:47.828Z,10.00
2018-04-08T07:44:47.882Z,11.30
2018-04-08T07:45:47.795Z,10.20
2018-04-08T07:46:47.794Z,10.40
2018-04-08T07:47:47.778Z,10.70
2018-04-08T07:48:47.775Z,10.80
2018-04-08T07:49:47.746Z,10.90
2018-04-08T07:50:47.740Z,10.90
2018-04-08T07:51:47.720Z,10.50
2018-04-08T07:52:47.706Z,10.70
2018-04-08T07:53:47.696Z,11.30
2018-04-08T07:54:47.683Z,11.40
2018-04-08T07:55:47.697Z,10.30
2018-04-08T07:56:47.661Z,11.30
2018-04-08T07:57:47.652Z,10.10
2018-04-08T07:58:47.638Z,11.40
2018-04-08T07:59:47.625Z,11.50
2018-04-08T08:00:47.639Z,11.10
2018-04-08T08:01:47.605Z,11.10
2018-04-08T08:02:47.597Z,11.00
2018-04-08T08:03:47.590Z,10.90
2018-04-08T08:04:47.576Z,11.50
2018-04-08T08:05:47.572Z,10.60
2018-04-08T08:06:47.562Z,11.10
2018-04-08T08:07:47.545Z,11.30
2018-04-08T08:08:47.542Z,11.30
2018-04-08T08:09:47.525Z,11.10
2018-04-08T08:10:47.528Z,11.50
2018-04-08T08:11:47.508Z,11.30
2018-04-08T08:12:47.497Z,11.90
2018-04-08T08:13:47.561Z,10.80
2018-04-08T08:14:47.478Z,10.50
2018-04-08T08:15:47.472Z,11.40
2018-04-08T08:16:47.513Z,11.80
2018-04-08T08:17:47.450Z,11.20
2018-04-08T08:18:47.442Z,10.90
2018-04-08T08:19:47.432Z,11.20
2018-04-08T08:20:47.426Z,11.40
2018-04-08T08:21:47.416Z,11.90
2018-04-08T08:22:47.403Z,11.80
2018-04-08T08:23:47.390Z,11.20
2018-04-08T08:24:47.386Z,11.80
2018-04-08T08:25:47.379Z,11.30
2018-04-08T08:26:47.385Z,11.90
2018-04-08T08:27:47.351Z,11.10
2018-04-08T08:28:47.345Z,11.10
2018-04-08T08:29:47.340Z,11.40
2018-04-08T08:30:47.336Z,11.20
2018-04-08T08:31:47.327Z,12.00
2018-04-08T08:32:47.312Z,11.70
2018-04-08T08:33:47.314Z,12.30
2018-04-08T08:34:47.300Z,12.30
2018-04-08T08:35:47.298Z,12.20
2018-04-08T08:36:47.290Z,11.90
2018-04-08T08:37:47.288Z,12.10
2018-04-08T08:38:47.263Z,12.30
2018-04-08T08:39:47.259Z,12.40
2018-04-08T08:40:47.253Z,12.20
2018-04-08T08:41:47.244Z,12.60
2018-04-08T08:42:47.237Z,12.40
2018-04-08T08:43:47.229Z,12.20
2018-04-08T08:44:47.219Z,12.20
2018-04-08T08:45:47.226Z,13.90
2018-04-08T08:46:47.269Z,13.30
2018-04-08T08:47:47.200Z,12.70
2018-04-08T08:48:47.188Z,12.70
2018-04-08T08:49:47.192Z,12.80
2018-04-08T08:50:47.189Z,13.80
2018-04-08T08:51:47.177Z,13.30
2018-04-08T08:52:47.168Z,12.90
2018-04-08T08:53:47.248Z,12.30
2018-04-08T08:54:47.189Z,12.60
2018-04-08T08:55:47.151Z,13.30
2018-04-08T08:56:47.151Z,13.60
2018-04-08T08:57:47.136Z,13.40
2018-04-08T08:58:47.147Z,13.20
2018-04-08T08:59:47.126Z,13.60
2018-04-08T09:00:47.119Z,13.00
2018-04-08T09:01:47.121Z,12.40
2018-04-08T09:02:47.111Z,12.90
2018-04-08T09:03:47.111Z,13.20
2018-04-08T09:04:47.106Z,12.20
2018-04-08T09:05:47.102Z,13.00
2018-04-08T09:06:47.236Z,13.60
2018-04-08T09:07:47.097Z,13.40
2018-04-08T09:08:47.100Z,13.40
2018-04-08T09:09:47.117Z,13.00
2018-04-08T09:10:47.087Z,13.70
2018-04-08T09:11:47.094Z,12.90
2018-04-08T09:12:47.081Z,13.10
2018-04-08T09:13:47.079Z,12.60
2018-04-08T09:14:47.077Z,12.80
2018-04-08T09:15:47.092Z,12.40
2018-04-08T09:16:47.074Z,14.00
2018-04-08T09:17:47.089Z,13.40
2018-04-08T09:18:47.069Z,13.10
2018-04-08T09:19:47.077Z,13.80
2018-04-08T09:20:47.067Z,13.20
2018-04-08T09:21:47.066Z,12.90
2018-04-08T09:22:47.064Z,13.10
2018-04-08T09:23:47.097Z,13.60
2018-04-08T09:24:47.064Z,14.10
2018-04-08T09:25:47.058Z,13.40
2018-04-08T09:26:47.058Z,13.30
2018-04-08T09:27:47.121Z,14.30
2018-04-08T09:28:47.067Z,12.80
2018-04-08T09:29:47.063Z,13.40
2018-04-08T09:30:47.054Z,13.20
2018-04-08T09:31:47.054Z,12.70
2018-04-08T09:32:47.052Z,13.20
2018-04-08T09:33:47.053Z,13.40
2018-04-08T09:34:47.055Z,13.00
2018-04-08T09:35:47.045Z,13.30
2018-04-08T09:36:47.043Z,12.90
2018-04-08T09:37:47.056Z,12.70
2018-04-08T09:38:47.054Z,12.50
2018-04-08T09:39:47.043Z,12.60
2018-04-08T09:40:47.035Z,12.60
2018-04-08T09:41:47.033Z,12.70
2018-04-08T09:42:47.031Z,13.00
2018-04-08T09:43:47.029Z,13.00
2018-04-08T09:44:47.024Z,12.80
2018-04-08T09:45:47.023Z,12.40
2018-04-08T09:46:47.025Z,12.90
2018-04-08T09:47:47.021Z,13.90
2018-04-08T09:48:47.024Z,13.50
2018-04-08T09:49:47.020Z,12.70
2018-04-08T09:50:47.015Z,13.60
2018-04-08T09:51:47.013Z,13.20
2018-04-08T09:52:47.011Z,12.90
2018-04-08T09:53:47.022Z,13.30
2018-04-08T09:54:47.013Z,13.70
2018-04-08T09:55:47.009Z,12.70
2018-04-08T09:56:47.023Z,13.40
2018-04-08T09:57:47.002Z,13.50
2018-04-08T09:58:47.011Z,13.70
2018-04-08T09:59:47.010Z,13.80
2018-04-08T10:00:47.003Z,13.20
2018-04-08T10:01:47.009Z,13.50
2018-04-08T10:02:47.003Z,13.30
2018-04-08T10:03:47.002Z,13.20
2018-04-08T10:04:47.003Z,12.80
2018-04-08T10:05:47.005Z,12.20
2018-04-08T10:06:47.021Z,13.40
2018-04-08T10:07:47.012Z,13.00
2018-04-08T10:08:47.009Z,13.30
2018-04-08T10:09:47.008Z,13.40
2018-04-08T10:10:47.031Z,12.20
2018-04-08T10:11:47.047Z,12.90
2018-04-08T10:12:47.017Z,15.10
2018-04-08T10:13:47.038Z,13.30
2018-04-08T10:14:47.024Z,13.00
2018-04-08T10:15:47.030Z,12.60
2018-04-08T10:16:47.027Z,12.00
2018-04-08T10:17:47.028Z,10.60
2018-04-08T10:18:47.032Z,11.30
2018-04-08T10:19:47.046Z,12.10
2018-04-08T10:20:47.051Z,11.10
2018-04-08T10:21:47.046Z,11.60
2018-04-08T10:22:47.072Z,10.60
2018-04-08T10:23:47.050Z,11.40
2018-04-08T10:24:47.115Z,10.40
2018-04-08T10:25:47.061Z,11.10
2018-04-08T10:26:47.069Z,11.80
2018-04-08T10:27:47.060Z,14.20
2018-04-08T10:28:47.063Z,13.30
2018-04-08T10:29:47.067Z,12.80
2018-04-08T10:30:47.076Z,11.60
2018-04-08T10:31:47.075Z,12.40
2018-04-08T10:32:47.075Z,12.80
2018-04-08T10:33:47.068Z,13.10
2018-04-08T10:34:47.082Z,12.60
2018-04-08T10:35:47.079Z,13.20
2018-04-08T10:36:47.080Z,12.60
2018-04-08T10:37:47.126Z,13.50
2018-04-08T10:38:47.076Z,13.30
2018-04-08T10:39:47.076Z,13.70
2018-04-08T10:40:47.077Z,13.80
2018-04-08T10:41:47.080Z,13.30
2018-04-08T10:42:47.085Z,13.20
2018-04-08T10:43:47.077Z,13.50
2018-04-08T14:03:37.450Z,10.60
2018-04-08T14:04:37.432Z,9.70
2018-04-08T14:05:37.442Z,10.00
2018-04-08T14:06:37.416Z,10.10
2018-04-08T14:07:37.412Z,9.70
2018-04-08T14:08:37.400Z,9.70
2018-04-08T14:09:37.382Z,9.70
2018-04-08T14:10:37.370Z,8.90
2018-04-08T14:11:37.348Z,8.30
2018-04-08T14:12:37.337Z,8.90
2018-04-08T14:13:37.339Z,8.30
2018-04-08T14:14:37.334Z,9.00
2018-04-08T14:15:37.313Z,9.10
2018-04-08T14:16:37.294Z,9.00
2018-04-08T14:17:37.304Z,8.40
2018-04-08T14:18:37.282Z,9.60
2018-04-08T14:19:37.261Z,9.10
2018-04-08T14:20:37.254Z,9.00
2018-04-08T14:21:37.246Z,8.70
2018-04-08T14:22:37.235Z,8.10
2018-04-08T14:23:37.225Z,8.40
2018-04-08T14:24:37.266Z,9.00
2018-04-08T14:25:37.206Z,9.00
2018-04-08T14:26:37.201Z,8.30
2018-04-08T14:27:37.194Z,8.20
2018-04-08T14:28:37.180Z,8.60
2018-04-08T14:29:37.170Z,8.80
2018-04-08T14:30:37.213Z,8.90
2018-04-08T14:31:37.157Z,8.70
2018-04-08T14:32:37.149Z,8.80
2018-04-08T14:33:37.139Z,8.50
2018-04-08T14:34:37.129Z,9.20
2018-04-08T14:35:37.173Z,8.70
2018-04-08T14:36:37.113Z,7.90
2018-04-08T14:37:37.106Z,8.80
2018-04-08T14:38:37.094Z,7.90
2018-04-08T14:39:37.089Z,7.70
2018-04-08T14:40:37.078Z,8.10
2018-04-08T14:41:37.071Z,7.90
2018-04-08T14:42:37.067Z,8.10
2018-04-08T14:43:37.057Z,7.90
2018-04-08T14:44:37.060Z,8.30
2018-04-08T14:45:37.054Z,9.00
2018-04-08T14:46:37.165Z,8.60
2018-04-08T14:47:37.074Z,8.20
2018-04-08T14:48:37.026Z,8.30
2018-04-08T14:49:37.020Z,8.30
2018-04-08T14:50:36.999Z,8.00
2018-04-08T14:51:37.002Z,8.50
2018-04-08T14:52:36.997Z,8.50
2018-04-08T14:53:36.998Z,8.80
2018-04-08T14:54:36.976Z,9.40
2018-04-08T14:55:36.973Z,9.60
2018-04-08T14:56:36.965Z,9.60
2018-04-08T14:57:36.948Z,8.80
2018-04-08T14:58:36.940Z,9.20
2018-04-08T14:59:36.973Z,8.30
2018-04-08T15:00:36.926Z,8.60
2018-04-08T15:01:36.927Z,9.60
2018-04-08T15:02:36.914Z,9.00
2018-04-08T15:03:36.909Z,8.80
2018-04-08T15:04:36.917Z,8.50
2018-04-08T15:05:36.888Z,9.30
2018-04-08T15:06:36.882Z,8.90
2018-04-08T15:07:36.946Z,9.20
2018-04-08T15:08:36.860Z,9.00
2018-04-08T15:09:36.857Z,9.20
2018-04-08T15:10:36.866Z,9.20
2018-04-08T15:11:36.854Z,8.50
2018-04-08T15:12:36.843Z,8.70
2018-04-08T15:13:36.828Z,8.80
2018-04-08T15:14:36.817Z,9.20
2018-04-08T15:15:36.809Z,8.80
2018-04-08T15:16:36.802Z,10.10
2018-04-08T15:17:36.800Z,9.20
2018-04-08T15:18:36.787Z,9.20
2018-04-08T15:19:36.777Z,9.40
2018-04-08T15:20:36.916Z,9.70
2018-04-08T15:21:36.769Z,9.30
2018-04-08T15:22:36.755Z,9.50
2018-04-08T15:23:36.748Z,9.30
2018-04-08T15:24:36.746Z,8.90
2018-04-08T15:25:36.782Z,9.40
2018-04-08T15:26:36.740Z,8.70
2018-04-08T15:27:36.721Z,9.20
2018-04-08T15:28:36.710Z,9.40
2018-04-08T15:29:36.698Z,9.10
2018-04-08T15:30:36.712Z,9.70
2018-04-08T15:31:36.741Z,8.60
2018-04-08T15:32:36.686Z,8.80
2018-04-08T15:33:36.669Z,8.90
2018-04-08T15:34:36.672Z,9.20
2018-04-08T15:35:36.653Z,8.60
2018-04-08T15:36:36.695Z,8.30
2018-04-08T15:37:36.637Z,8.70
2018-04-08T15:38:36.643Z,8.90
2018-04-08T15:39:36.653Z,9.00
2018-04-08T15:40:36.615Z,9.20
2018-04-08T15:41:36.608Z,9.40
2018-04-08T15:42:36.603Z,9.40
2018-04-08T15:43:36.593Z,9.80
2018-04-08T15:44:36.591Z,9.90
2018-04-08T15:45:36.585Z,9.60
2018-04-08T15:46:36.571Z,10.10
2018-04-08T15:47:36.574Z,9.20
2018-04-08T15:48:36.606Z,10.40
2018-04-08T15:49:36.550Z,11.00
2018-04-08T15:50:36.545Z,10.40
2018-04-08T15:51:36.588Z,10.80
2018-04-08T15:52:36.526Z,11.00
2018-04-08T15:53:36.522Z,9.60
2018-04-08T15:54:36.529Z,9.30
2018-04-08T15:55:36.502Z,10.00
2018-04-08T15:56:36.496Z,10.40
2018-04-08T15:57:36.524Z,9.10
2018-04-08T15:58:36.480Z,8.90
2018-04-08T15:59:36.471Z,10.40
2018-04-08T16:00:36.488Z,9.80
2018-04-08T16:01:36.460Z,10.80
2018-04-08T16:02:36.457Z,10.10
2018-04-08T16:03:36.446Z,10.00
2018-04-08T16:04:36.431Z,10.00
2018-04-08T16:05:36.429Z,8.70
2018-04-08T16:06:36.421Z,9.00
2018-04-08T16:07:36.412Z,9.50
2018-04-08T16:08:36.403Z,8.90
2018-04-08T16:09:36.403Z,9.40
2018-04-08T16:10:36.383Z,9.40
2018-04-08T16:11:36.383Z,9.70
2018-04-08T16:12:36.374Z,9.50
2018-04-08T16:13:36.380Z,9.20
2018-04-08T16:14:36.363Z,9.60
2018-04-08T16:15:36.352Z,9.00
2018-04-08T16:16:36.355Z,9.70
2018-04-08T16:17:36.339Z,9.50
2018-04-08T16:18:36.327Z,9.00